Airfield :
LOGIN :

Register | Disclaimer

   EN    FR    IT 

 










Legend :    VFR   Marginal VFR   IFR   Intensive IFR   Very Intensive IFR
Visi :
Ceiling :
>= 8 km
>= 3000ft
5 to 8 km
1000 to 3000 ft
1500m to 5 km
500 to 1000 ft
800 to 1500m
200 to 500 ft
< 800m
< 200 ft
Symbols :   Thunderstorms  Fog  Heavy snow  Heavy precipitations  Wind > 20 kt
SIGMETs :     Misc.  Thunderstorms  Icing  Turbulence  Mountain Waves  Volcanic Ashes







- Airport Elevation : 870 ft
- IATA code : ETZ
- Download approach charts


LFJL - Metz Nancy Lorraine

CURRENT METAR :
  • 132300Z AUTO 04006KT CAVOK M04/M06 Q1016 NOSIG

EXPIRED METARs :
  • 132230Z AUTO 05006KT CAVOK M04/M06 Q1016 NOSIG
  • 132200Z AUTO 05006KT CAVOK M03/M06 Q1016 NOSIG
  • 132130Z AUTO 03007KT CAVOK M02/M05 Q1016 NOSIG
  • 132100Z AUTO 04009KT CAVOK M02/M05 Q1015 NOSIG
  • 132030Z AUTO 05010KT CAVOK M01/M05 Q1015 NOSIG

TAF TAF LFJL
Valid from the 13 at 18:00 until the 14 at 18:00 UTC


131700Z 1318/1418 06012KT 9999 BKN030
PROB30
TEMPO 1403/1409 BKN014
No reported NOTAMs for that airfield.



MET'MAP, your aeronautical weather chart ! - Copyright ORBIFLY December 2007 - Disclaimer

ORBIFLY MET'MAP TEAM :

Programming & Development : Alexandra Zaïnal
Concept & Development : Baudouin d'Aumeries
Co-Development & Prog : Marc-Olivier Méhu
Technical & hardware support : Manuel Goepfert

Contact : metmap@orbifly.com




SOURCES & CREDITS :

   NOAA